createdAt,value
2018-08-18T00:00:15.196Z,23.00
2018-08-18T00:00:47.280Z,23.00
2018-08-18T00:01:19.377Z,23.00
2018-08-18T00:01:51.474Z,23.00
2018-08-18T00:02:23.579Z,23.00
2018-08-18T00:02:55.888Z,23.00
2018-08-18T00:03:28.011Z,23.00
2018-08-18T00:04:00.193Z,23.00
2018-08-18T00:04:32.322Z,23.00
2018-08-18T00:05:04.435Z,23.00
2018-08-18T00:05:36.550Z,23.00
2018-08-18T00:06:08.914Z,23.00
2018-08-18T00:06:41.134Z,23.00
2018-08-18T00:07:13.204Z,23.00
2018-08-18T00:07:45.300Z,23.00
2018-08-18T00:08:17.528Z,23.00
2018-08-18T00:08:49.628Z,23.00
2018-08-18T00:09:21.814Z,23.00
2018-08-18T00:09:54.154Z,23.00
2018-08-18T00:10:26.239Z,23.00
2018-08-18T00:10:58.378Z,23.00
2018-08-18T00:11:30.477Z,23.00
2018-08-18T00:12:02.561Z,23.00
2018-08-18T00:12:34.646Z,23.00
2018-08-18T00:13:06.723Z,23.00
2018-08-18T00:13:38.944Z,23.00
2018-08-18T00:14:11.005Z,23.00
2018-08-18T00:14:43.081Z,22.90
2018-08-18T00:15:15.199Z,22.80
2018-08-18T00:15:47.267Z,22.80
2018-08-18T00:16:19.369Z,22.90
2018-08-18T00:16:51.683Z,22.90
2018-08-18T00:17:23.797Z,22.80
2018-08-18T00:17:55.882Z,22.80
2018-08-18T00:18:28.129Z,22.80
2018-08-18T00:19:00.344Z,22.80
2018-08-18T00:19:32.522Z,22.90
2018-08-18T00:20:04.924Z,22.80
2018-08-18T00:20:37.126Z,22.90
2018-08-18T00:21:09.262Z,22.90
2018-08-18T00:21:41.376Z,22.90
2018-08-18T00:22:13.441Z,22.80
2018-08-18T00:22:45.686Z,22.90
2018-08-18T00:23:17.788Z,22.90
2018-08-18T00:23:49.873Z,22.90
2018-08-18T00:24:22.100Z,22.90
2018-08-18T00:24:54.191Z,22.90
2018-08-18T00:25:26.258Z,22.80
2018-08-18T00:25:58.508Z,22.90
2018-08-18T00:26:30.618Z,22.90
2018-08-18T00:27:02.718Z,22.90
2018-08-18T00:27:34.861Z,22.80
2018-08-18T00:28:06.958Z,22.90
2018-08-18T00:28:39.089Z,22.80
2018-08-18T00:29:11.368Z,22.80
2018-08-18T00:29:43.504Z,22.80
2018-08-18T00:30:15.698Z,22.80
2018-08-18T00:30:47.854Z,22.80
2018-08-18T00:31:20.043Z,22.80
2018-08-18T00:31:52.200Z,22.80
2018-08-18T00:32:24.304Z,22.80
2018-08-18T00:32:56.464Z,22.80
2018-08-18T00:33:28.626Z,22.80
2018-08-18T00:34:00.805Z,22.80
2018-08-18T00:34:32.952Z,22.80
2018-08-18T00:35:05.089Z,22.80
2018-08-18T00:35:37.402Z,22.80
2018-08-18T00:36:09.486Z,22.80
2018-08-18T00:36:41.653Z,22.80
2018-08-18T00:37:13.798Z,22.80
2018-08-18T00:37:45.911Z,22.80
2018-08-18T00:38:18.063Z,22.80
2018-08-18T00:38:50.134Z,22.80
2018-08-18T00:39:22.267Z,22.80
2018-08-18T00:39:54.402Z,22.80
2018-08-18T00:40:26.568Z,22.80
2018-08-18T00:40:58.819Z,22.80
2018-08-18T00:41:31.030Z,22.80
2018-08-18T00:42:03.153Z,22.70
2018-08-18T00:42:35.349Z,22.70
2018-08-18T00:43:07.531Z,22.70
2018-08-18T00:43:39.755Z,22.70
2018-08-18T00:44:11.898Z,22.70
2018-08-18T00:44:44.025Z,22.70
2018-08-18T00:45:16.115Z,22.70
2018-08-18T00:45:48.335Z,22.70
2018-08-18T00:46:20.490Z,22.70
2018-08-18T00:46:52.611Z,22.70
2018-08-18T00:47:24.678Z,22.70
2018-08-18T00:47:56.814Z,22.80
2018-08-18T00:48:28.931Z,22.80
2018-08-18T00:49:01.041Z,22.80
2018-08-18T00:49:33.130Z,22.80
2018-08-18T00:50:05.259Z,22.80
2018-08-18T00:50:37.353Z,22.80
2018-08-18T00:51:09.464Z,22.80
2018-08-18T00:51:41.677Z,22.80
2018-08-18T00:52:13.796Z,22.80
2018-08-18T00:52:45.910Z,22.70
2018-08-18T00:53:18.036Z,22.60
2018-08-18T00:53:50.270Z,22.60
2018-08-18T00:54:22.365Z,22.60
2018-08-18T00:54:54.487Z,22.60
2018-08-18T00:55:26.577Z,22.60
2018-08-18T00:55:58.673Z,22.60
2018-08-18T00:56:30.767Z,22.60
2018-08-18T00:57:02.919Z,22.60
2018-08-18T00:57:35.042Z,22.60
2018-08-18T00:58:07.127Z,22.60
2018-08-18T00:58:39.254Z,22.60
2018-08-18T00:59:11.378Z,22.60
2018-08-18T00:59:43.470Z,22.60
2018-08-18T01:00:15.550Z,22.60
2018-08-18T01:00:47.698Z,22.60
2018-08-18T01:01:19.783Z,22.60
2018-08-18T01:01:51.904Z,22.60
2018-08-18T01:02:23.999Z,22.70
2018-08-18T01:02:56.212Z,22.70
2018-08-18T01:03:28.298Z,22.70
2018-08-18T01:04:00.724Z,22.70
2018-08-18T01:04:32.810Z,22.60
2018-08-18T01:05:04.909Z,22.60
2018-08-18T01:05:37.002Z,22.60
2018-08-18T01:06:09.109Z,22.60
2018-08-18T01:06:41.193Z,22.60
2018-08-18T01:07:13.350Z,22.60
2018-08-18T01:07:45.439Z,22.60
2018-08-18T01:08:17.687Z,22.60
2018-08-18T01:08:49.861Z,22.60
2018-08-18T01:09:22.070Z,22.60
2018-08-18T01:09:54.135Z,22.60
2018-08-18T01:10:26.327Z,22.60
2018-08-18T01:10:58.624Z,22.60
2018-08-18T01:11:30.913Z,22.60
2018-08-18T01:12:03.271Z,22.60
2018-08-18T01:12:35.516Z,22.50
2018-08-18T01:13:07.789Z,22.50
2018-08-18T01:13:40.010Z,22.50
2018-08-18T01:14:12.292Z,22.50
2018-08-18T01:14:44.340Z,22.50
2018-08-18T01:15:16.410Z,22.50
2018-08-18T01:15:48.538Z,22.50
2018-08-18T01:16:20.610Z,22.50
2018-08-18T01:16:52.931Z,22.50
2018-08-18T01:17:25.229Z,22.60
2018-08-18T01:17:57.351Z,22.60
2018-08-18T01:18:29.565Z,22.60
2018-08-18T01:19:01.687Z,22.50
2018-08-18T01:19:34.009Z,22.50
2018-08-18T01:20:06.058Z,22.40
2018-08-18T01:20:38.149Z,22.50
2018-08-18T01:21:10.262Z,22.50
2018-08-18T01:21:42.523Z,22.50
2018-08-18T01:22:14.605Z,22.50
2018-08-18T01:22:46.934Z,22.50
2018-08-18T01:23:19.147Z,22.50
2018-08-18T01:23:51.238Z,22.50
2018-08-18T01:24:23.337Z,22.50
2018-08-18T01:24:55.425Z,22.50
2018-08-18T01:25:27.554Z,22.50
2018-08-18T01:25:59.755Z,22.40
2018-08-18T01:26:32.039Z,22.40
2018-08-18T01:27:04.176Z,22.50
2018-08-18T01:27:36.246Z,22.50
2018-08-18T01:28:08.629Z,22.40
2018-08-18T01:28:40.779Z,22.40
2018-08-18T01:29:12.981Z,22.40
2018-08-18T01:29:45.069Z,22.40
2018-08-18T01:30:17.165Z,22.50
2018-08-18T01:30:49.308Z,22.50
2018-08-18T01:31:21.376Z,22.50
2018-08-18T01:31:53.604Z,22.50
2018-08-18T01:32:25.706Z,22.40
2018-08-18T01:32:57.798Z,22.40
2018-08-18T01:33:29.868Z,22.40
2018-08-18T01:34:02.121Z,22.40
2018-08-18T01:34:34.228Z,22.40
2018-08-18T01:35:06.297Z,22.40
2018-08-18T01:35:38.406Z,22.40
2018-08-18T01:36:10.468Z,22.50
2018-08-18T01:36:42.623Z,22.40
2018-08-18T01:37:14.691Z,22.40
2018-08-18T01:37:46.941Z,22.40
2018-08-18T01:38:19.050Z,22.40
2018-08-18T01:38:51.239Z,22.50
2018-08-18T01:39:23.286Z,22.50
2018-08-18T01:39:55.488Z,22.50
2018-08-18T01:40:27.547Z,22.50
2018-08-18T01:40:59.622Z,22.50
2018-08-18T01:41:31.697Z,22.50
2018-08-18T01:42:03.794Z,22.50
2018-08-18T01:42:35.954Z,22.40
2018-08-18T01:43:08.073Z,22.40
2018-08-18T01:43:40.125Z,22.50
2018-08-18T01:44:12.258Z,22.40
2018-08-18T01:44:44.353Z,22.40
2018-08-18T01:45:16.572Z,22.40
2018-08-18T01:45:48.641Z,22.30
2018-08-18T01:46:21.082Z,22.40
2018-08-18T01:46:53.172Z,22.40
2018-08-18T01:47:25.237Z,22.40
2018-08-18T01:47:57.313Z,22.40
2018-08-18T01:48:29.435Z,22.30
2018-08-18T01:49:01.520Z,22.30
2018-08-18T01:49:33.685Z,22.30
2018-08-18T01:50:05.793Z,22.30
2018-08-18T01:50:37.881Z,22.30
2018-08-18T01:51:10.057Z,22.20
2018-08-18T01:51:42.112Z,22.20
2018-08-18T01:52:14.273Z,22.30
2018-08-18T01:52:46.395Z,22.30
2018-08-18T01:53:18.513Z,22.30
2018-08-18T01:53:50.901Z,22.30
2018-08-18T01:54:23.092Z,22.30
2018-08-18T01:54:55.209Z,22.30
2018-08-18T01:55:27.314Z,22.30
2018-08-18T01:55:59.436Z,22.30
2018-08-18T01:56:31.519Z,22.30
2018-08-18T01:57:03.808Z,22.30
2018-08-18T01:57:35.878Z,22.30
2018-08-18T01:58:08.026Z,22.30
2018-08-18T01:58:40.301Z,22.30
2018-08-18T01:59:12.406Z,22.30
2018-08-18T01:59:44.640Z,22.30
2018-08-18T02:00:16.691Z,22.30
2018-08-18T02:00:48.832Z,22.30
2018-08-18T02:01:21.207Z,22.30
2018-08-18T02:01:53.305Z,22.30
2018-08-18T02:02:25.398Z,22.20
2018-08-18T02:02:57.564Z,22.20
2018-08-18T02:03:29.679Z,22.20
2018-08-18T02:04:01.787Z,22.20
2018-08-18T02:04:33.867Z,22.20
2018-08-18T02:05:06.004Z,22.20
2018-08-18T02:05:38.113Z,22.20
2018-08-18T02:06:10.198Z,22.20
2018-08-18T02:06:42.297Z,22.20
2018-08-18T02:07:14.502Z,22.20
2018-08-18T02:07:46.866Z,22.20
2018-08-18T02:08:19.002Z,22.20
2018-08-18T02:08:51.215Z,22.20
2018-08-18T02:09:23.293Z,22.20
2018-08-18T02:09:55.413Z,22.20
2018-08-18T02:10:27.556Z,22.20
2018-08-18T02:10:59.705Z,22.30
2018-08-18T02:11:31.812Z,22.30
2018-08-18T02:12:03.885Z,22.20
2018-08-18T02:12:36.192Z,22.30
2018-08-18T02:13:08.402Z,22.30
2018-08-18T02:13:40.481Z,22.30
2018-08-18T02:14:12.776Z,22.20
2018-08-18T02:14:44.895Z,22.20
2018-08-18T02:15:17.101Z,22.20
2018-08-18T02:15:49.412Z,22.20
2018-08-18T02:16:21.573Z,22.20
2018-08-18T02:16:53.690Z,22.20
2018-08-18T02:17:25.807Z,22.20
2018-08-18T02:17:58.087Z,22.20
2018-08-18T02:18:30.161Z,22.30
2018-08-18T02:19:02.295Z,22.20
2018-08-18T02:19:34.374Z,22.20
2018-08-18T02:20:06.753Z,22.20
2018-08-18T02:20:38.797Z,22.30
2018-08-18T02:21:10.958Z,22.30
2018-08-18T02:21:43.074Z,22.30
2018-08-18T02:22:15.148Z,22.20
2018-08-18T02:22:47.289Z,22.30
2018-08-18T02:23:19.397Z,22.30
2018-08-18T02:23:51.465Z,22.30
2018-08-18T02:24:23.538Z,22.30
2018-08-18T02:24:55.595Z,22.30
2018-08-18T02:25:27.681Z,22.20
2018-08-18T02:25:59.810Z,22.20
2018-08-18T02:26:31.908Z,22.20
2018-08-18T02:27:04.146Z,22.20
2018-08-18T02:27:36.248Z,22.20
2018-08-18T02:28:08.349Z,22.20
2018-08-18T02:28:40.462Z,22.20
2018-08-18T02:29:12.607Z,22.20
2018-08-18T02:29:44.685Z,22.20
2018-08-18T02:30:16.967Z,22.20
2018-08-18T02:30:49.073Z,22.20
2018-08-18T02:31:21.137Z,22.20
2018-08-18T02:31:53.425Z,22.10
2018-08-18T02:32:25.498Z,22.20
2018-08-18T02:32:57.646Z,22.10
2018-08-18T02:33:30.036Z,22.20
2018-08-18T02:34:02.119Z,22.20
2018-08-18T02:34:34.249Z,22.20
2018-08-18T02:35:06.388Z,22.20
2018-08-18T02:35:38.466Z,22.20
2018-08-18T02:36:10.805Z,22.20
2018-08-18T02:36:42.921Z,22.20
2018-08-18T02:37:15.009Z,22.20
2018-08-18T02:37:47.261Z,22.20
2018-08-18T02:38:19.377Z,22.20
2018-08-18T02:38:51.497Z,22.20
2018-08-18T02:39:23.734Z,22.10
2018-08-18T02:39:56.030Z,22.10
2018-08-18T02:40:28.087Z,22.20
2018-08-18T02:41:00.188Z,22.10
2018-08-18T02:41:32.296Z,22.20
2018-08-18T02:42:04.411Z,22.20
2018-08-18T02:42:36.502Z,22.20
2018-08-18T02:43:08.578Z,22.20
2018-08-18T02:43:40.754Z,22.20
2018-08-18T02:44:12.901Z,22.30
2018-08-18T02:44:45.226Z,22.30
2018-08-18T02:45:17.381Z,22.20
2018-08-18T02:45:49.576Z,22.20
2018-08-18T02:46:21.683Z,22.20
2018-08-18T02:46:53.761Z,22.20
2018-08-18T02:47:25.874Z,22.20
2018-08-18T02:47:58.323Z,22.20
2018-08-18T02:48:30.578Z,22.20
2018-08-18T02:49:02.680Z,22.10
2018-08-18T02:49:34.760Z,22.20
2018-08-18T02:50:06.862Z,22.20
2018-08-18T02:50:38.929Z,22.10
2018-08-18T02:51:11.062Z,22.10
2018-08-18T02:51:43.177Z,22.10
2018-08-18T02:52:15.282Z,22.10
2018-08-18T02:52:47.370Z,22.10
2018-08-18T02:53:19.485Z,22.10
2018-08-18T02:53:51.686Z,22.10
2018-08-18T02:54:23.820Z,22.10
2018-08-18T02:54:56.153Z,22.10
2018-08-18T02:55:28.254Z,22.10
2018-08-18T02:56:00.549Z,22.10
2018-08-18T02:56:32.760Z,22.10
2018-08-18T02:57:04.876Z,22.10
2018-08-18T02:57:37.062Z,22.10
2018-08-18T02:58:09.165Z,22.10
2018-08-18T02:58:41.293Z,22.10
2018-08-18T02:59:13.396Z,22.10
2018-08-18T02:59:45.651Z,22.10
2018-08-18T03:00:17.766Z,22.10
2018-08-18T03:00:50.123Z,22.10
2018-08-18T03:01:22.305Z,22.10
2018-08-18T03:01:54.415Z,22.10
2018-08-18T03:02:26.660Z,22.10
2018-08-18T03:02:58.798Z,22.10
2018-08-18T03:03:30.904Z,22.10
2018-08-18T03:04:03.229Z,22.10
2018-08-18T03:04:35.306Z,22.10
2018-08-18T03:05:07.401Z,22.10
2018-08-18T03:05:39.478Z,22.10
2018-08-18T03:06:11.773Z,22.10
2018-08-18T03:06:43.855Z,22.10
2018-08-18T03:07:16.043Z,22.10
2018-08-18T03:07:48.156Z,22.10
2018-08-18T03:08:20.185Z,22.10
2018-08-18T03:08:52.404Z,22.00
2018-08-18T03:09:24.564Z,22.10
2018-08-18T03:09:56.689Z,22.10
2018-08-18T03:10:28.807Z,22.10
2018-08-18T03:11:00.922Z,22.10
2018-08-18T03:11:33.281Z,22.10
2018-08-18T03:12:05.435Z,22.10
2018-08-18T03:12:37.509Z,22.20
2018-08-18T03:13:09.663Z,22.20
2018-08-18T03:13:41.804Z,22.20
2018-08-18T03:14:14.004Z,22.20
2018-08-18T03:14:46.134Z,22.20
2018-08-18T03:15:18.237Z,22.20
2018-08-18T03:15:50.322Z,22.20
2018-08-18T03:16:22.434Z,22.20
2018-08-18T03:16:54.580Z,22.20
2018-08-18T03:17:26.674Z,22.10
2018-08-18T03:17:59.021Z,22.10
2018-08-18T03:18:31.125Z,22.00
2018-08-18T03:19:03.338Z,22.00
2018-08-18T03:19:35.543Z,22.00
2018-08-18T03:20:07.662Z,22.00
2018-08-18T03:20:39.786Z,22.00
2018-08-18T03:21:12.005Z,22.00
2018-08-18T03:21:44.238Z,22.00
2018-08-18T03:22:16.369Z,22.00
2018-08-18T03:22:48.632Z,22.00
2018-08-18T03:23:20.728Z,22.00
2018-08-18T03:23:52.905Z,22.00
2018-08-18T03:24:25.058Z,22.00
2018-08-18T03:24:57.265Z,22.00
2018-08-18T03:25:29.444Z,22.00
2018-08-18T03:26:01.574Z,22.00
2018-08-18T03:26:33.658Z,22.00
2018-08-18T03:27:05.838Z,22.00
2018-08-18T03:27:37.949Z,22.00
2018-08-18T03:28:10.141Z,22.00
2018-08-18T03:28:42.257Z,22.00
2018-08-18T03:29:14.400Z,22.00
2018-08-18T03:29:46.572Z,22.00
2018-08-18T03:30:18.709Z,22.00
2018-08-18T03:30:50.871Z,22.00
2018-08-18T03:31:23.072Z,22.00
2018-08-18T03:31:55.290Z,22.00
2018-08-18T03:32:27.383Z,22.00
2018-08-18T03:32:59.539Z,22.00
2018-08-18T03:33:31.766Z,22.00
2018-08-18T03:34:03.948Z,22.00
2018-08-18T03:34:36.055Z,22.00
2018-08-18T03:35:08.182Z,22.00
2018-08-18T03:35:40.341Z,22.10
2018-08-18T03:36:12.463Z,22.10
2018-08-18T03:36:44.694Z,22.20
2018-08-18T03:37:16.770Z,22.20
2018-08-18T03:37:48.834Z,22.20
2018-08-18T03:38:20.949Z,22.20
2018-08-18T03:38:53.076Z,22.10
2018-08-18T03:39:25.183Z,22.20
2018-08-18T03:39:57.288Z,22.20
2018-08-18T03:40:29.462Z,22.10
2018-08-18T03:41:01.551Z,22.10
2018-08-18T03:41:33.671Z,22.10
2018-08-18T03:42:05.989Z,22.10
2018-08-18T03:42:38.094Z,22.10
2018-08-18T03:43:10.405Z,22.20
2018-08-18T03:43:42.471Z,22.20
2018-08-18T03:44:14.566Z,22.10
2018-08-18T03:44:46.619Z,22.10
2018-08-18T03:45:18.939Z,22.10
2018-08-18T03:45:51.005Z,22.10
2018-08-18T03:46:23.323Z,22.00
2018-08-18T03:46:55.399Z,22.00
2018-08-18T03:47:27.633Z,22.00
2018-08-18T03:47:59.717Z,22.10
2018-08-18T03:48:31.847Z,22.10
2018-08-18T03:49:03.962Z,22.10
2018-08-18T03:49:36.070Z,22.10
2018-08-18T03:50:08.290Z,22.20
2018-08-18T03:50:40.512Z,22.20
2018-08-18T03:51:12.662Z,22.20
2018-08-18T03:51:44.881Z,22.20
2018-08-18T03:52:17.059Z,22.20
2018-08-18T03:52:49.103Z,22.10
2018-08-18T03:53:21.242Z,22.20
2018-08-18T03:53:53.331Z,22.10
2018-08-18T03:54:25.439Z,22.20
2018-08-18T03:54:57.540Z,22.10
2018-08-18T03:55:29.755Z,22.10
2018-08-18T03:56:01.837Z,22.20
2018-08-18T03:56:33.916Z,22.20
2018-08-18T03:57:05.999Z,22.10
2018-08-18T03:57:38.255Z,22.10
2018-08-18T03:58:10.402Z,22.10
2018-08-18T03:58:42.446Z,22.10
2018-08-18T03:59:14.536Z,22.10
2018-08-18T03:59:46.658Z,22.10
2018-08-18T04:00:18.756Z,22.00
2018-08-18T04:00:50.861Z,22.10
2018-08-18T04:01:22.930Z,22.00
2018-08-18T04:01:55.058Z,22.00
2018-08-18T04:02:27.206Z,22.00
2018-08-18T04:02:59.370Z,22.00
2018-08-18T04:03:31.691Z,22.00
2018-08-18T04:04:03.790Z,22.10
2018-08-18T04:04:36.009Z,22.10
2018-08-18T04:05:08.128Z,22.10
2018-08-18T04:05:40.178Z,22.10
2018-08-18T04:06:12.267Z,22.10
2018-08-18T04:06:44.321Z,22.10
2018-08-18T04:07:16.451Z,22.00
2018-08-18T04:07:48.542Z,22.00
2018-08-18T04:08:20.670Z,22.00
2018-08-18T04:08:52.770Z,22.00
2018-08-18T04:09:25.140Z,21.90
2018-08-18T04:09:57.196Z,21.90
2018-08-18T04:10:29.443Z,21.90
2018-08-18T04:11:01.536Z,21.90
2018-08-18T04:11:33.629Z,21.90
2018-08-18T04:12:05.705Z,21.90
2018-08-18T04:12:37.855Z,21.90
2018-08-18T04:13:10.020Z,21.90
2018-08-18T04:13:42.146Z,21.80
2018-08-18T04:14:14.209Z,21.80
2018-08-18T04:14:46.365Z,21.90
2018-08-18T04:15:18.460Z,21.90
2018-08-18T04:15:50.569Z,21.80
2018-08-18T04:16:22.696Z,21.80
2018-08-18T04:16:54.849Z,21.90
2018-08-18T04:17:26.953Z,21.80
2018-08-18T04:17:59.449Z,21.80
2018-08-18T04:18:31.547Z,21.90
2018-08-18T04:19:03.654Z,21.80
2018-08-18T04:19:35.913Z,21.80
2018-08-18T04:20:08.069Z,21.80
2018-08-18T04:20:40.168Z,21.80
2018-08-18T04:21:12.594Z,21.70
2018-08-18T04:21:44.701Z,21.80
2018-08-18T04:22:16.809Z,21.80
2018-08-18T04:22:48.979Z,21.80
2018-08-18T04:23:21.249Z,21.80
2018-08-18T04:23:53.381Z,21.80
2018-08-18T04:24:25.443Z,21.80
2018-08-18T04:24:57.565Z,21.80
2018-08-18T04:25:29.698Z,21.80
2018-08-18T04:26:01.845Z,21.80
2018-08-18T04:26:33.950Z,21.80
2018-08-18T04:27:06.099Z,21.80
2018-08-18T04:27:38.195Z,21.80
2018-08-18T04:28:10.412Z,21.80
2018-08-18T04:28:42.476Z,21.80
2018-08-18T04:29:14.583Z,21.80
2018-08-18T04:29:46.656Z,21.80
2018-08-18T04:30:18.789Z,21.80
2018-08-18T04:30:51.002Z,21.80
2018-08-18T04:31:23.102Z,21.80
2018-08-18T04:31:55.293Z,21.80
2018-08-18T04:32:27.394Z,21.80
2018-08-18T04:32:59.550Z,21.80
2018-08-18T04:33:31.716Z,21.80
2018-08-18T04:34:03.915Z,21.80
2018-08-18T04:34:35.993Z,21.80
2018-08-18T04:35:08.193Z,21.80
2018-08-18T04:35:40.448Z,21.90
2018-08-18T04:36:12.530Z,21.90
2018-08-18T04:36:44.597Z,21.90
2018-08-18T04:37:16.854Z,21.90
2018-08-18T04:37:49.014Z,21.90
2018-08-18T04:38:21.086Z,22.00
2018-08-18T04:38:53.147Z,21.90
2018-08-18T04:39:25.342Z,21.90
2018-08-18T04:39:57.594Z,21.80
2018-08-18T04:40:29.807Z,21.90
2018-08-18T04:41:02.019Z,21.80
2018-08-18T04:41:34.125Z,21.80
2018-08-18T04:42:06.245Z,21.90
2018-08-18T04:42:38.302Z,21.90
2018-08-18T04:43:10.453Z,21.90
2018-08-18T04:43:42.540Z,21.90
2018-08-18T04:44:14.622Z,21.90
2018-08-18T04:44:46.681Z,21.80
2018-08-18T04:45:18.788Z,21.90
2018-08-18T04:45:50.886Z,21.90
2018-08-18T04:46:22.982Z,21.90
2018-08-18T04:46:55.202Z,21.90
2018-08-18T04:47:27.281Z,21.90
2018-08-18T04:47:59.461Z,21.90
2018-08-18T04:48:31.596Z,21.90
2018-08-18T04:49:03.822Z,21.90
2018-08-18T04:49:36.025Z,21.90
2018-08-18T04:50:08.345Z,21.90
2018-08-18T04:50:40.477Z,21.90
2018-08-18T04:51:12.793Z,21.90
2018-08-18T04:51:44.950Z,21.80
2018-08-18T04:52:17.033Z,21.90
2018-08-18T04:52:49.294Z,21.80
2018-08-18T04:53:21.366Z,21.90
2018-08-18T04:53:53.576Z,21.80
2018-08-18T04:54:25.654Z,21.80
2018-08-18T04:54:57.868Z,21.80
2018-08-18T04:55:30.021Z,21.80
2018-08-18T04:56:02.154Z,21.80
2018-08-18T04:56:34.313Z,21.80
2018-08-18T04:57:06.387Z,21.90
2018-08-18T04:57:38.593Z,21.80
2018-08-18T04:58:10.706Z,21.80
2018-08-18T04:58:42.782Z,21.90
2018-08-18T04:59:14.959Z,21.90
2018-08-18T04:59:46.986Z,21.90
2018-08-18T05:00:19.056Z,21.90
2018-08-18T05:00:51.312Z,21.90
2018-08-18T05:01:23.429Z,21.90
2018-08-18T05:01:55.886Z,21.80
2018-08-18T05:02:28.044Z,21.90
2018-08-18T05:03:00.345Z,21.90
2018-08-18T05:03:32.471Z,21.90
2018-08-18T05:04:04.542Z,21.90
2018-08-18T05:04:36.633Z,21.90
2018-08-18T05:05:08.794Z,21.80
2018-08-18T05:05:40.989Z,21.80
2018-08-18T05:06:13.244Z,21.90
2018-08-18T05:06:45.339Z,21.80
2018-08-18T05:07:17.401Z,21.90
2018-08-18T05:07:49.724Z,21.80
2018-08-18T05:08:21.849Z,21.80
2018-08-18T05:08:53.971Z,21.90
2018-08-18T05:09:26.013Z,21.90
2018-08-18T05:09:58.124Z,21.90
2018-08-18T05:10:30.206Z,21.90
2018-08-18T05:11:02.341Z,21.90
2018-08-18T05:11:34.470Z,21.80
2018-08-18T05:12:06.794Z,21.80
2018-08-18T05:12:38.873Z,21.80
2018-08-18T05:13:11.043Z,21.80
2018-08-18T05:13:43.121Z,21.80
2018-08-18T05:14:15.234Z,21.80
2018-08-18T05:14:47.316Z,21.80
2018-08-18T05:15:19.395Z,21.80
2018-08-18T05:15:51.508Z,21.80
2018-08-18T05:16:23.633Z,21.90
2018-08-18T05:16:55.743Z,21.80
2018-08-18T05:17:27.797Z,21.80
2018-08-18T05:17:59.966Z,21.90
2018-08-18T05:18:32.029Z,21.90
2018-08-18T05:19:04.141Z,21.90
2018-08-18T05:19:36.252Z,21.90
2018-08-18T05:20:08.430Z,22.00
2018-08-18T05:20:40.522Z,22.10
2018-08-18T05:21:12.694Z,22.00
2018-08-18T05:21:44.835Z,22.00
2018-08-18T05:22:16.977Z,22.00
2018-08-18T05:22:49.280Z,22.00
2018-08-18T05:23:21.374Z,22.00
2018-08-18T05:23:53.482Z,22.00
2018-08-18T05:24:25.825Z,22.00
2018-08-18T05:24:57.935Z,22.00
2018-08-18T05:25:30.012Z,22.00
2018-08-18T05:26:02.254Z,22.00
2018-08-18T05:26:34.347Z,21.90
2018-08-18T05:27:06.397Z,22.00
2018-08-18T05:27:38.505Z,22.00
2018-08-18T05:28:10.648Z,22.00
2018-08-18T05:28:42.854Z,22.00
2018-08-18T05:29:14.984Z,22.00
2018-08-18T05:29:47.099Z,22.00
2018-08-18T05:30:19.322Z,22.00
2018-08-18T05:30:51.452Z,22.00
2018-08-18T05:31:23.602Z,22.00
2018-08-18T05:31:55.677Z,22.00
2018-08-18T05:32:27.749Z,22.00
2018-08-18T05:32:59.828Z,22.00
2018-08-18T05:33:31.938Z,22.00
2018-08-18T05:34:04.098Z,22.00
2018-08-18T05:34:36.246Z,22.00
2018-08-18T05:35:08.346Z,22.00
2018-08-18T05:35:40.416Z,22.00
2018-08-18T05:36:12.541Z,22.00
2018-08-18T05:36:44.782Z,22.00
2018-08-18T05:37:16.914Z,22.00
2018-08-18T05:37:48.982Z,22.00
2018-08-18T05:38:21.155Z,22.10
2018-08-18T05:38:53.257Z,22.00
2018-08-18T05:39:25.404Z,22.10
2018-08-18T05:39:57.639Z,22.10
2018-08-18T05:40:29.742Z,22.10
2018-08-18T05:41:01.821Z,22.20
2018-08-18T05:41:34.037Z,22.10
2018-08-18T05:42:06.157Z,22.10
2018-08-18T05:42:38.452Z,22.20
2018-08-18T05:43:10.959Z,22.10
2018-08-18T05:43:43.092Z,22.10
2018-08-18T05:44:15.180Z,22.10
2018-08-18T05:44:47.419Z,22.10
2018-08-18T05:45:19.525Z,22.20
2018-08-18T05:45:51.682Z,22.10
2018-08-18T05:46:23.932Z,22.00
2018-08-18T05:46:56.059Z,22.00
2018-08-18T05:47:28.186Z,22.10
2018-08-18T05:48:00.398Z,22.10
2018-08-18T05:48:32.694Z,22.10
2018-08-18T05:49:04.847Z,22.10
2018-08-18T05:49:37.062Z,22.10
2018-08-18T05:50:09.146Z,22.00
2018-08-18T05:50:41.371Z,22.00
2018-08-18T05:51:13.480Z,22.10
2018-08-18T05:51:45.621Z,22.00
2018-08-18T05:52:17.737Z,22.00
2018-08-18T05:52:49.814Z,22.00
2018-08-18T05:53:21.873Z,22.00
2018-08-18T05:53:54.126Z,22.10
2018-08-18T05:54:26.375Z,22.10
2018-08-18T05:54:58.453Z,22.10
2018-08-18T05:55:30.520Z,22.20
2018-08-18T05:56:02.621Z,22.10
2018-08-18T05:56:34.858Z,22.10
2018-08-18T05:57:07.004Z,22.20
2018-08-18T05:57:39.245Z,22.20
2018-08-18T05:58:11.388Z,22.20
2018-08-18T05:58:43.511Z,22.30
2018-08-18T05:59:15.637Z,22.20
2018-08-18T05:59:47.728Z,22.20
2018-08-18T06:00:19.801Z,22.20
2018-08-18T06:00:51.891Z,22.30
2018-08-18T06:01:24.013Z,22.30
2018-08-18T06:01:56.114Z,22.30
2018-08-18T06:02:28.257Z,22.30
2018-08-18T06:03:00.445Z,22.30
2018-08-18T06:03:32.538Z,22.30
2018-08-18T06:04:04.859Z,22.30
2018-08-18T06:04:36.930Z,22.30
2018-08-18T06:05:09.035Z,22.30
2018-08-18T06:05:41.280Z,22.30
2018-08-18T06:06:13.437Z,22.30
2018-08-18T06:06:45.533Z,22.30
2018-08-18T06:07:17.602Z,22.30
2018-08-18T06:07:49.707Z,22.30
2018-08-18T06:08:21.879Z,22.30
2018-08-18T06:08:53.994Z,22.30
2018-08-18T06:09:26.079Z,22.30
2018-08-18T06:09:58.166Z,22.30
2018-08-18T06:10:30.310Z,22.20
2018-08-18T06:11:02.440Z,22.30
2018-08-18T06:11:34.659Z,22.20
2018-08-18T06:12:06.823Z,22.30
2018-08-18T06:12:38.882Z,22.30
2018-08-18T06:13:11.012Z,22.30
2018-08-18T06:13:43.193Z,22.40
2018-08-18T06:14:16.188Z,22.40
2018-08-18T06:14:48.405Z,22.40
2018-08-18T06:15:20.551Z,22.40
2018-08-18T06:15:52.751Z,22.40
2018-08-18T06:16:24.837Z,22.30
2018-08-18T06:16:56.956Z,22.30
2018-08-18T06:17:29.007Z,22.30
2018-08-18T06:18:01.098Z,22.40
2018-08-18T06:18:33.185Z,22.40
2018-08-18T06:19:05.323Z,22.40
2018-08-18T06:19:37.425Z,22.40
2018-08-18T06:20:09.545Z,22.40
2018-08-18T06:20:41.656Z,22.40
2018-08-18T06:21:13.788Z,22.40
2018-08-18T06:21:45.937Z,22.40
2018-08-18T06:22:18.134Z,22.40
2018-08-18T06:22:50.313Z,22.40
2018-08-18T06:23:22.376Z,22.40
2018-08-18T06:23:54.869Z,22.50
2018-08-18T06:24:26.965Z,22.40
2018-08-18T06:24:59.080Z,22.40
2018-08-18T06:25:31.189Z,22.40
2018-08-18T06:26:03.316Z,22.40
2018-08-18T06:26:35.397Z,22.40
2018-08-18T06:27:07.482Z,22.40
2018-08-18T06:27:39.692Z,22.40
2018-08-18T06:28:11.865Z,22.40
2018-08-18T06:28:43.976Z,22.40
2018-08-18T06:29:16.153Z,22.40
2018-08-18T06:29:48.269Z,22.40
2018-08-18T06:30:20.456Z,22.40
2018-08-18T06:30:52.542Z,22.30
2018-08-18T06:31:24.838Z,22.40
2018-08-18T06:31:56.973Z,22.30
2018-08-18T06:32:29.098Z,22.40
2018-08-18T06:33:01.173Z,22.40
2018-08-18T06:33:33.240Z,22.40
2018-08-18T06:34:05.382Z,22.40
2018-08-18T06:34:37.604Z,22.40
2018-08-18T06:35:09.844Z,22.40
2018-08-18T06:35:42.047Z,22.40
2018-08-18T06:36:14.108Z,22.40
2018-08-18T06:36:46.188Z,22.40
2018-08-18T06:37:18.293Z,22.30
2018-08-18T06:37:50.406Z,22.40
2018-08-18T06:38:22.609Z,22.40
2018-08-18T06:38:54.925Z,22.40
2018-08-18T06:39:27.128Z,22.40
2018-08-18T06:39:59.269Z,22.40
2018-08-18T06:40:31.328Z,22.30
2018-08-18T06:41:03.461Z,22.30
2018-08-18T06:41:35.701Z,22.40
2018-08-18T06:42:07.757Z,22.30
2018-08-18T06:42:39.841Z,22.40
2018-08-18T06:43:11.966Z,22.40
2018-08-18T06:43:44.125Z,22.50
2018-08-18T06:44:16.203Z,22.50
2018-08-18T06:44:48.349Z,22.40
2018-08-18T06:45:20.451Z,22.40
2018-08-18T06:45:52.618Z,22.50
2018-08-18T06:46:24.759Z,22.40
2018-08-18T06:46:57.033Z,22.40
2018-08-18T06:47:29.134Z,22.40
2018-08-18T06:48:01.250Z,22.40
2018-08-18T06:48:33.543Z,22.40
2018-08-18T06:49:05.631Z,22.40
2018-08-18T06:49:37.767Z,22.30
2018-08-18T06:50:09.860Z,22.30
2018-08-18T06:50:41.982Z,22.30
2018-08-18T06:51:14.090Z,22.30
2018-08-18T06:51:46.177Z,22.30
2018-08-18T06:52:18.303Z,22.30
2018-08-18T06:52:50.696Z,22.40
2018-08-18T06:53:22.962Z,22.40
2018-08-18T06:53:55.050Z,22.40